sensor_id;sensor_type;location;lat;lon;timestamp;temperature;humidity
5429;DHT22;2737;52.386;9.980;2022-08-20T00:00:59;19.60;99.90
5429;DHT22;2737;52.386;9.980;2022-08-20T00:03:29;19.60;99.90
5429;DHT22;2737;52.386;9.980;2022-08-20T00:06:00;19.70;99.90
5429;DHT22;2737;52.386;9.980;2022-08-20T00:08:28;19.60;99.90
5429;DHT22;2737;52.386;9.980;2022-08-20T00:10:56;19.50;99.90
5429;DHT22;2737;52.386;9.980;2022-08-20T00:13:25;19.40;99.90
5429;DHT22;2737;52.386;9.980;2022-08-20T00:15:53;19.40;99.90
5429;DHT22;2737;52.386;9.980;2022-08-20T00:18:21;19.30;99.90
5429;DHT22;2737;52.386;9.980;2022-08-20T00:20:51;19.30;99.90
5429;DHT22;2737;52.386;9.980;2022-08-20T00:23:20;19.30;99.90
5429;DHT22;2737;52.386;9.980;2022-08-20T00:25:47;19.30;99.90
5429;DHT22;2737;52.386;9.980;2022-08-20T00:28:15;19.30;99.90
5429;DHT22;2737;52.386;9.980;2022-08-20T00:30:43;19.40;99.90
5429;DHT22;2737;52.386;9.980;2022-08-20T00:33:12;19.40;99.90
5429;DHT22;2737;52.386;9.980;2022-08-20T00:35:42;19.40;99.90
5429;DHT22;2737;52.386;9.980;2022-08-20T00:38:10;19.40;99.90
5429;DHT22;2737;52.386;9.980;2022-08-20T00:40:43;19.30;99.90
5429;DHT22;2737;52.386;9.980;2022-08-20T00:43:29;19.20;99.90
5429;DHT22;2737;52.386;9.980;2022-08-20T00:45:57;19.30;99.90
5429;DHT22;2737;52.386;9.980;2022-08-20T00:48:27;19.30;99.90
5429;DHT22;2737;52.386;9.980;2022-08-20T00:51:00;19.20;99.90
5429;DHT22;2737;52.386;9.980;2022-08-20T00:53:28;19.10;99.90
5429;DHT22;2737;52.386;9.980;2022-08-20T00:55:57;19.10;99.90
5429;DHT22;2737;52.386;9.980;2022-08-20T00:58:26;19.00;99.90
5429;DHT22;2737;52.386;9.980;2022-08-20T01:00:54;19.10;99.90
5429;DHT22;2737;52.386;9.980;2022-08-20T01:03:21;19.00;99.90
5429;DHT22;2737;52.386;9.980;2022-08-20T01:05:50;18.90;99.90
5429;DHT22;2737;52.386;9.980;2022-08-20T01:08:20;18.90;99.90
5429;DHT22;2737;52.386;9.980;2022-08-20T01:10:49;18.80;99.90
5429;DHT22;2737;52.386;9.980;2022-08-20T01:13:22;18.70;99.90
5429;DHT22;2737;52.386;9.980;2022-08-20T01:15:52;18.70;99.90
5429;DHT22;2737;52.386;9.980;2022-08-20T01:18:23;18.80;99.90
5429;DHT22;2737;52.386;9.980;2022-08-20T01:20:53;18.80;99.90
5429;DHT22;2737;52.386;9.980;2022-08-20T01:23:25;18.80;99.90
5429;DHT22;2737;52.386;9.980;2022-08-20T01:25:58;18.80;99.90
5429;DHT22;2737;52.386;9.980;2022-08-20T01:28:32;18.90;99.90
5429;DHT22;2737;52.386;9.980;2022-08-20T01:31:00;18.80;99.90
5429;DHT22;2737;52.386;9.980;2022-08-20T01:33:28;18.80;99.90
5429;DHT22;2737;52.386;9.980;2022-08-20T01:35:57;18.60;99.90
5429;DHT22;2737;52.386;9.980;2022-08-20T01:38:25;18.50;99.90
5429;DHT22;2737;52.386;9.980;2022-08-20T01:41:27;18.40;99.90
5429;DHT22;2737;52.386;9.980;2022-08-20T01:43:56;18.50;99.90
5429;DHT22;2737;52.386;9.980;2022-08-20T01:46:26;18.60;99.90
5429;DHT22;2737;52.386;9.980;2022-08-20T01:48:55;18.70;99.90
5429;DHT22;2737;52.386;9.980;2022-08-20T01:51:25;18.80;99.90
5429;DHT22;2737;52.386;9.980;2022-08-20T01:53:56;18.90;99.90
5429;DHT22;2737;52.386;9.980;2022-08-20T01:56:29;18.90;99.90
5429;DHT22;2737;52.386;9.980;2022-08-20T01:58:58;18.90;99.90
5429;DHT22;2737;52.386;9.980;2022-08-20T02:01:27;18.80;99.90
5429;DHT22;2737;52.386;9.980;2022-08-20T02:03:55;18.70;99.90
5429;DHT22;2737;52.386;9.980;2022-08-20T02:06:24;18.70;99.90
5429;DHT22;2737;52.386;9.980;2022-08-20T02:08:53;18.70;99.90
5429;DHT22;2737;52.386;9.980;2022-08-20T02:11:21;18.60;99.90
5429;DHT22;2737;52.386;9.980;2022-08-20T02:13:51;18.60;99.90
5429;DHT22;2737;52.386;9.980;2022-08-20T02:16:20;18.60;99.90
5429;DHT22;2737;52.386;9.980;2022-08-20T02:18:49;18.60;99.90
5429;DHT22;2737;52.386;9.980;2022-08-20T02:21:19;18.50;99.90
5429;DHT22;2737;52.386;9.980;2022-08-20T02:23:47;18.40;99.90
5429;DHT22;2737;52.386;9.980;2022-08-20T02:26:15;18.50;99.90
5429;DHT22;2737;52.386;9.980;2022-08-20T02:28:44;18.50;99.90
5429;DHT22;2737;52.386;9.980;2022-08-20T02:31:16;18.50;99.90
5429;DHT22;2737;52.386;9.980;2022-08-20T02:33:44;18.50;99.90
5429;DHT22;2737;52.386;9.980;2022-08-20T02:36:12;18.60;99.90
5429;DHT22;2737;52.386;9.980;2022-08-20T02:38:40;18.60;99.90
5429;DHT22;2737;52.386;9.980;2022-08-20T02:41:09;18.60;99.90
5429;DHT22;2737;52.386;9.980;2022-08-20T02:43:37;18.60;99.90
5429;DHT22;2737;52.386;9.980;2022-08-20T02:46:05;18.60;99.90
5429;DHT22;2737;52.386;9.980;2022-08-20T02:48:34;18.60;99.90
5429;DHT22;2737;52.386;9.980;2022-08-20T02:51:03;18.60;99.90
5429;DHT22;2737;52.386;9.980;2022-08-20T02:53:32;18.60;99.90
5429;DHT22;2737;52.386;9.980;2022-08-20T02:56:00;18.60;99.90
5429;DHT22;2737;52.386;9.980;2022-08-20T02:58:27;18.60;99.90
5429;DHT22;2737;52.386;9.980;2022-08-20T03:00:54;18.60;99.90
5429;DHT22;2737;52.386;9.980;2022-08-20T03:03:23;18.60;99.90
5429;DHT22;2737;52.386;9.980;2022-08-20T03:05:53;18.70;99.90
5429;DHT22;2737;52.386;9.980;2022-08-20T03:08:21;18.70;99.90
5429;DHT22;2737;52.386;9.980;2022-08-20T03:10:50;18.70;99.90
5429;DHT22;2737;52.386;9.980;2022-08-20T03:13:18;18.70;99.90
5429;DHT22;2737;52.386;9.980;2022-08-20T03:15:47;18.70;99.90
5429;DHT22;2737;52.386;9.980;2022-08-20T03:18:16;18.80;99.90
5429;DHT22;2737;52.386;9.980;2022-08-20T03:20:44;18.70;99.90
5429;DHT22;2737;52.386;9.980;2022-08-20T03:23:12;18.70;99.90
5429;DHT22;2737;52.386;9.980;2022-08-20T03:25:40;18.70;99.90
5429;DHT22;2737;52.386;9.980;2022-08-20T03:28:07;18.70;99.90
5429;DHT22;2737;52.386;9.980;2022-08-20T03:30:35;18.70;99.90
5429;DHT22;2737;52.386;9.980;2022-08-20T03:33:02;18.70;99.90
5429;DHT22;2737;52.386;9.980;2022-08-20T03:35:30;18.70;99.90
5429;DHT22;2737;52.386;9.980;2022-08-20T03:37:58;18.60;99.90
5429;DHT22;2737;52.386;9.980;2022-08-20T03:40:29;18.60;99.90
5429;DHT22;2737;52.386;9.980;2022-08-20T03:42:57;18.60;99.90
5429;DHT22;2737;52.386;9.980;2022-08-20T03:45:25;18.60;99.90
5429;DHT22;2737;52.386;9.980;2022-08-20T03:47:55;18.60;99.90
5429;DHT22;2737;52.386;9.980;2022-08-20T03:50:25;18.60;99.90
5429;DHT22;2737;52.386;9.980;2022-08-20T03:52:53;18.70;99.90
5429;DHT22;2737;52.386;9.980;2022-08-20T03:55:23;18.60;99.90
5429;DHT22;2737;52.386;9.980;2022-08-20T03:57:53;18.70;99.90
5429;DHT22;2737;52.386;9.980;2022-08-20T04:00:22;18.70;99.90
5429;DHT22;2737;52.386;9.980;2022-08-20T04:02:50;18.80;99.90
5429;DHT22;2737;52.386;9.980;2022-08-20T04:05:17;18.70;99.90
5429;DHT22;2737;52.386;9.980;2022-08-20T04:07:45;18.70;99.90
5429;DHT22;2737;52.386;9.980;2022-08-20T04:10:12;18.60;99.90
5429;DHT22;2737;52.386;9.980;2022-08-20T04:12:39;18.60;99.90
5429;DHT22;2737;52.386;9.980;2022-08-20T04:15:10;18.60;99.90
5429;DHT22;2737;52.386;9.980;2022-08-20T04:17:39;18.60;99.90
5429;DHT22;2737;52.386;9.980;2022-08-20T04:20:09;18.60;99.90
5429;DHT22;2737;52.386;9.980;2022-08-20T04:22:37;18.60;99.90
5429;DHT22;2737;52.386;9.980;2022-08-20T04:25:05;18.60;99.90
5429;DHT22;2737;52.386;9.980;2022-08-20T04:27:35;18.60;99.90
5429;DHT22;2737;52.386;9.980;2022-08-20T04:30:04;18.60;99.90
5429;DHT22;2737;52.386;9.980;2022-08-20T04:32:32;18.70;99.90
5429;DHT22;2737;52.386;9.980;2022-08-20T04:35:01;18.70;99.90
5429;DHT22;2737;52.386;9.980;2022-08-20T04:37:29;18.70;99.90
5429;DHT22;2737;52.386;9.980;2022-08-20T04:39:56;18.60;99.90
5429;DHT22;2737;52.386;9.980;2022-08-20T04:42:41;18.70;99.90
5429;DHT22;2737;52.386;9.980;2022-08-20T04:45:08;18.60;99.90
5429;DHT22;2737;52.386;9.980;2022-08-20T04:47:37;18.70;99.90
5429;DHT22;2737;52.386;9.980;2022-08-20T04:50:07;18.70;99.90
5429;DHT22;2737;52.386;9.980;2022-08-20T04:52:34;18.70;99.90
5429;DHT22;2737;52.386;9.980;2022-08-20T04:55:02;18.60;99.90
5429;DHT22;2737;52.386;9.980;2022-08-20T04:57:30;18.60;99.90
5429;DHT22;2737;52.386;9.980;2022-08-20T04:59:57;18.60;99.90
5429;DHT22;2737;52.386;9.980;2022-08-20T05:02:24;18.60;99.90
5429;DHT22;2737;52.386;9.980;2022-08-20T05:04:52;18.60;99.90
5429;DHT22;2737;52.386;9.980;2022-08-20T05:07:19;18.50;99.90
5429;DHT22;2737;52.386;9.980;2022-08-20T05:09:46;18.50;99.90
5429;DHT22;2737;52.386;9.980;2022-08-20T05:12:13;18.50;99.90
5429;DHT22;2737;52.386;9.980;2022-08-20T05:14:42;18.50;99.90
5429;DHT22;2737;52.386;9.980;2022-08-20T05:17:09;18.40;99.90
5429;DHT22;2737;52.386;9.980;2022-08-20T05:19:39;18.40;99.90
5429;DHT22;2737;52.386;9.980;2022-08-20T05:22:08;18.40;99.90
5429;DHT22;2737;52.386;9.980;2022-08-20T05:24:35;18.40;99.90
5429;DHT22;2737;52.386;9.980;2022-08-20T05:27:04;18.40;99.90
5429;DHT22;2737;52.386;9.980;2022-08-20T05:29:31;18.40;99.90
5429;DHT22;2737;52.386;9.980;2022-08-20T05:31:58;18.40;99.90
5429;DHT22;2737;52.386;9.980;2022-08-20T05:34:25;18.30;99.90
5429;DHT22;2737;52.386;9.980;2022-08-20T05:36:52;18.30;99.90
5429;DHT22;2737;52.386;9.980;2022-08-20T05:39:21;18.40;99.90
5429;DHT22;2737;52.386;9.980;2022-08-20T05:41:49;18.40;99.90
5429;DHT22;2737;52.386;9.980;2022-08-20T05:44:17;18.40;99.90
5429;DHT22;2737;52.386;9.980;2022-08-20T05:46:45;18.30;99.90
5429;DHT22;2737;52.386;9.980;2022-08-20T05:49:19;18.20;99.90
5429;DHT22;2737;52.386;9.980;2022-08-20T05:51:47;18.20;99.90
5429;DHT22;2737;52.386;9.980;2022-08-20T05:54:15;18.30;99.90
5429;DHT22;2737;52.386;9.980;2022-08-20T05:56:43;18.30;99.90
5429;DHT22;2737;52.386;9.980;2022-08-20T05:59:11;18.40;99.90
5429;DHT22;2737;52.386;9.980;2022-08-20T06:01:39;18.40;99.90
5429;DHT22;2737;52.386;9.980;2022-08-20T06:04:08;18.40;99.90
5429;DHT22;2737;52.386;9.980;2022-08-20T06:06:50;18.40;99.90
5429;DHT22;2737;52.386;9.980;2022-08-20T06:09:20;18.30;99.90
5429;DHT22;2737;52.386;9.980;2022-08-20T06:11:49;18.40;99.90
5429;DHT22;2737;52.386;9.980;2022-08-20T06:14:16;18.30;99.90
5429;DHT22;2737;52.386;9.980;2022-08-20T06:16:46;18.40;99.90
5429;DHT22;2737;52.386;9.980;2022-08-20T06:19:13;18.50;99.90
5429;DHT22;2737;52.386;9.980;2022-08-20T06:21:41;18.50;99.90
5429;DHT22;2737;52.386;9.980;2022-08-20T06:24:08;18.40;99.90
5429;DHT22;2737;52.386;9.980;2022-08-20T06:26:35;18.50;99.90
5429;DHT22;2737;52.386;9.980;2022-08-20T06:29:05;18.60;99.90
5429;DHT22;2737;52.386;9.980;2022-08-20T06:31:32;18.60;99.90
5429;DHT22;2737;52.386;9.980;2022-08-20T06:34:04;18.60;99.90
5429;DHT22;2737;52.386;9.980;2022-08-20T06:36:32;18.60;99.90
5429;DHT22;2737;52.386;9.980;2022-08-20T06:38:59;18.70;99.90
5429;DHT22;2737;52.386;9.980;2022-08-20T06:41:26;18.80;99.90
5429;DHT22;2737;52.386;9.980;2022-08-20T06:43:53;18.70;99.90
5429;DHT22;2737;52.386;9.980;2022-08-20T06:46:22;18.90;99.90
5429;DHT22;2737;52.386;9.980;2022-08-20T06:48:50;19.00;99.90
5429;DHT22;2737;52.386;9.980;2022-08-20T06:51:17;19.10;99.90
5429;DHT22;2737;52.386;9.980;2022-08-20T06:53:45;19.10;99.90
5429;DHT22;2737;52.386;9.980;2022-08-20T06:56:12;19.20;99.90
5429;DHT22;2737;52.386;9.980;2022-08-20T06:58:39;19.30;99.90
5429;DHT22;2737;52.386;9.980;2022-08-20T07:01:08;19.40;99.90
5429;DHT22;2737;52.386;9.980;2022-08-20T07:03:37;19.40;99.90
5429;DHT22;2737;52.386;9.980;2022-08-20T07:06:06;19.40;99.90
5429;DHT22;2737;52.386;9.980;2022-08-20T07:08:34;19.50;99.90
5429;DHT22;2737;52.386;9.980;2022-08-20T07:11:01;19.60;99.90
5429;DHT22;2737;52.386;9.980;2022-08-20T07:13:28;19.60;99.90
5429;DHT22;2737;52.386;9.980;2022-08-20T07:15:55;19.70;99.90
5429;DHT22;2737;52.386;9.980;2022-08-20T07:18:23;19.80;99.90
5429;DHT22;2737;52.386;9.980;2022-08-20T07:20:51;19.90;99.90
5429;DHT22;2737;52.386;9.980;2022-08-20T07:23:21;19.70;99.90
5429;DHT22;2737;52.386;9.980;2022-08-20T07:25:48;19.90;99.90
5429;DHT22;2737;52.386;9.980;2022-08-20T07:28:17;19.90;99.90
5429;DHT22;2737;52.386;9.980;2022-08-20T07:30:45;19.80;99.90
5429;DHT22;2737;52.386;9.980;2022-08-20T07:33:30;19.90;99.90
5429;DHT22;2737;52.386;9.980;2022-08-20T07:36:00;19.90;99.90
5429;DHT22;2737;52.386;9.980;2022-08-20T07:38:29;20.00;99.90
5429;DHT22;2737;52.386;9.980;2022-08-20T07:40:59;20.00;99.90
5429;DHT22;2737;52.386;9.980;2022-08-20T07:43:26;20.10;99.90
5429;DHT22;2737;52.386;9.980;2022-08-20T07:45:55;20.10;99.90
5429;DHT22;2737;52.386;9.980;2022-08-20T07:48:26;20.10;99.90
5429;DHT22;2737;52.386;9.980;2022-08-20T07:50:53;20.10;99.90
5429;DHT22;2737;52.386;9.980;2022-08-20T07:53:22;20.30;99.90
5429;DHT22;2737;52.386;9.980;2022-08-20T07:55:49;20.30;99.90
5429;DHT22;2737;52.386;9.980;2022-08-20T07:58:19;20.30;99.90
5429;DHT22;2737;52.386;9.980;2022-08-20T08:00:47;20.30;99.90
5429;DHT22;2737;52.386;9.980;2022-08-20T08:03:14;20.30;99.90
5429;DHT22;2737;52.386;9.980;2022-08-20T08:05:44;20.40;99.90
5429;DHT22;2737;52.386;9.980;2022-08-20T08:08:15;20.30;99.90
5429;DHT22;2737;52.386;9.980;2022-08-20T08:10:45;20.10;99.90
5429;DHT22;2737;52.386;9.980;2022-08-20T08:13:13;20.10;99.90
5429;DHT22;2737;52.386;9.980;2022-08-20T08:15:43;20.20;99.90
5429;DHT22;2737;52.386;9.980;2022-08-20T08:18:14;20.40;99.90
5429;DHT22;2737;52.386;9.980;2022-08-20T08:20:43;20.60;99.90
5429;DHT22;2737;52.386;9.980;2022-08-20T08:23:11;20.50;99.90
5429;DHT22;2737;52.386;9.980;2022-08-20T08:25:38;20.50;99.90
5429;DHT22;2737;52.386;9.980;2022-08-20T08:28:08;20.60;99.90
5429;DHT22;2737;52.386;9.980;2022-08-20T08:30:36;20.80;99.90
5429;DHT22;2737;52.386;9.980;2022-08-20T08:33:04;21.00;99.90
5429;DHT22;2737;52.386;9.980;2022-08-20T08:35:49;21.10;99.90
5429;DHT22;2737;52.386;9.980;2022-08-20T08:38:16;21.50;99.90
5429;DHT22;2737;52.386;9.980;2022-08-20T08:40:43;21.40;99.90
5429;DHT22;2737;52.386;9.980;2022-08-20T08:43:13;21.50;99.90
5429;DHT22;2737;52.386;9.980;2022-08-20T08:45:44;21.60;99.90
5429;DHT22;2737;52.386;9.980;2022-08-20T08:48:15;21.60;99.90
5429;DHT22;2737;52.386;9.980;2022-08-20T08:50:46;21.60;99.90
5429;DHT22;2737;52.386;9.980;2022-08-20T08:53:18;21.90;99.90
5429;DHT22;2737;52.386;9.980;2022-08-20T08:55:47;22.00;99.90
5429;DHT22;2737;52.386;9.980;2022-08-20T08:58:15;22.10;99.90
5429;DHT22;2737;52.386;9.980;2022-08-20T09:00:42;22.00;99.90
5429;DHT22;2737;52.386;9.980;2022-08-20T09:03:14;22.00;99.90
5429;DHT22;2737;52.386;9.980;2022-08-20T09:05:46;22.00;99.90
5429;DHT22;2737;52.386;9.980;2022-08-20T09:08:17;22.30;99.90
5429;DHT22;2737;52.386;9.980;2022-08-20T09:10:45;22.50;99.90
5429;DHT22;2737;52.386;9.980;2022-08-20T09:13:12;22.30;99.90
5429;DHT22;2737;52.386;9.980;2022-08-20T09:15:42;21.80;99.90
5429;DHT22;2737;52.386;9.980;2022-08-20T09:18:09;22.00;99.90
5429;DHT22;2737;52.386;9.980;2022-08-20T09:20:36;21.90;99.90
5429;DHT22;2737;52.386;9.980;2022-08-20T09:23:04;21.90;99.90
5429;DHT22;2737;52.386;9.980;2022-08-20T09:25:31;21.90;99.90
5429;DHT22;2737;52.386;9.980;2022-08-20T09:27:58;21.90;99.90
5429;DHT22;2737;52.386;9.980;2022-08-20T09:30:25;21.90;99.90
5429;DHT22;2737;52.386;9.980;2022-08-20T09:32:56;21.80;99.90
5429;DHT22;2737;52.386;9.980;2022-08-20T09:35:24;22.00;99.90
5429;DHT22;2737;52.386;9.980;2022-08-20T09:37:51;22.00;99.90
5429;DHT22;2737;52.386;9.980;2022-08-20T09:40:18;21.70;99.90
5429;DHT22;2737;52.386;9.980;2022-08-20T09:42:45;21.70;99.90
5429;DHT22;2737;52.386;9.980;2022-08-20T09:45:13;21.80;99.90
5429;DHT22;2737;52.386;9.980;2022-08-20T09:47:40;21.90;99.90
5429;DHT22;2737;52.386;9.980;2022-08-20T09:50:09;22.10;99.90
5429;DHT22;2737;52.386;9.980;2022-08-20T09:52:40;22.10;99.90
5429;DHT22;2737;52.386;9.980;2022-08-20T09:55:16;22.00;99.90
5429;DHT22;2737;52.386;9.980;2022-08-20T09:57:44;22.00;99.90
5429;DHT22;2737;52.386;9.980;2022-08-20T10:00:12;22.00;99.90
5429;DHT22;2737;52.386;9.980;2022-08-20T10:02:40;22.10;99.90
5429;DHT22;2737;52.386;9.980;2022-08-20T10:05:09;22.20;99.90
5429;DHT22;2737;52.386;9.980;2022-08-20T10:07:37;22.30;99.90
5429;DHT22;2737;52.386;9.980;2022-08-20T10:10:06;22.40;99.90
5429;DHT22;2737;52.386;9.980;2022-08-20T10:12:34;22.60;99.90
5429;DHT22;2737;52.386;9.980;2022-08-20T10:15:01;22.90;99.90
5429;DHT22;2737;52.386;9.980;2022-08-20T10:17:28;23.00;99.90
5429;DHT22;2737;52.386;9.980;2022-08-20T10:19:55;23.00;99.90
5429;DHT22;2737;52.386;9.980;2022-08-20T10:22:24;23.20;99.90
5429;DHT22;2737;52.386;9.980;2022-08-20T10:24:51;23.30;99.90
5429;DHT22;2737;52.386;9.980;2022-08-20T10:27:19;23.10;99.90
5429;DHT22;2737;52.386;9.980;2022-08-20T10:29:46;23.10;99.90
5429;DHT22;2737;52.386;9.980;2022-08-20T10:32:14;23.00;99.90
5429;DHT22;2737;52.386;9.980;2022-08-20T10:34:44;23.10;99.90
5429;DHT22;2737;52.386;9.980;2022-08-20T10:37:14;23.20;99.90
5429;DHT22;2737;52.386;9.980;2022-08-20T10:39:43;23.20;99.90
5429;DHT22;2737;52.386;9.980;2022-08-20T10:42:11;23.00;99.90
5429;DHT22;2737;52.386;9.980;2022-08-20T10:44:38;22.90;99.90
5429;DHT22;2737;52.386;9.980;2022-08-20T10:47:14;23.00;99.90
5429;DHT22;2737;52.386;9.980;2022-08-20T10:49:41;23.30;99.90
5429;DHT22;2737;52.386;9.980;2022-08-20T10:52:08;23.40;99.90
5429;DHT22;2737;52.386;9.980;2022-08-20T10:54:35;23.50;99.90
5429;DHT22;2737;52.386;9.980;2022-08-20T10:57:08;23.30;99.90
5429;DHT22;2737;52.386;9.980;2022-08-20T10:59:39;23.40;99.90
5429;DHT22;2737;52.386;9.980;2022-08-20T11:02:07;23.50;99.90
5429;DHT22;2737;52.386;9.980;2022-08-20T11:04:34;23.30;99.90
5429;DHT22;2737;52.386;9.980;2022-08-20T11:07:12;23.40;99.90
5429;DHT22;2737;52.386;9.980;2022-08-20T11:09:40;23.50;99.90
5429;DHT22;2737;52.386;9.980;2022-08-20T11:12:09;23.50;99.90
5429;DHT22;2737;52.386;9.980;2022-08-20T11:14:36;23.50;99.90
5429;DHT22;2737;52.386;9.980;2022-08-20T11:17:04;23.30;99.90
5429;DHT22;2737;52.386;9.980;2022-08-20T11:19:31;23.20;99.90
5429;DHT22;2737;52.386;9.980;2022-08-20T11:21:58;23.10;99.90
5429;DHT22;2737;52.386;9.980;2022-08-20T11:24:25;22.90;99.90
5429;DHT22;2737;52.386;9.980;2022-08-20T11:26:52;23.10;99.90
5429;DHT22;2737;52.386;9.980;2022-08-20T11:29:21;23.00;99.90
5429;DHT22;2737;52.386;9.980;2022-08-20T11:31:49;22.90;99.90
5429;DHT22;2737;52.386;9.980;2022-08-20T11:34:17;22.40;99.90
5429;DHT22;2737;52.386;9.980;2022-08-20T11:36:44;22.20;99.90
5429;DHT22;2737;52.386;9.980;2022-08-20T11:39:12;21.70;99.90
5429;DHT22;2737;52.386;9.980;2022-08-20T11:41:39;21.50;99.90
5429;DHT22;2737;52.386;9.980;2022-08-20T11:44:06;21.40;99.90
5429;DHT22;2737;52.386;9.980;2022-08-20T11:46:35;21.20;99.90
5429;DHT22;2737;52.386;9.980;2022-08-20T11:49:02;21.00;99.90
5429;DHT22;2737;52.386;9.980;2022-08-20T11:51:30;20.90;99.90
5429;DHT22;2737;52.386;9.980;2022-08-20T11:53:57;20.80;99.90
5429;DHT22;2737;52.386;9.980;2022-08-20T11:56:24;20.80;99.90
5429;DHT22;2737;52.386;9.980;2022-08-20T11:58:51;20.50;99.90
5429;DHT22;2737;52.386;9.980;2022-08-20T12:01:18;20.50;99.90
5429;DHT22;2737;52.386;9.980;2022-08-20T12:03:46;20.70;99.90
5429;DHT22;2737;52.386;9.980;2022-08-20T12:06:13;20.80;99.90
5429;DHT22;2737;52.386;9.980;2022-08-20T12:08:40;20.60;99.90
5429;DHT22;2737;52.386;9.980;2022-08-20T12:11:07;20.60;99.90
5429;DHT22;2737;52.386;9.980;2022-08-20T12:13:35;20.60;99.90
5429;DHT22;2737;52.386;9.980;2022-08-20T12:16:06;20.80;99.90
5429;DHT22;2737;52.386;9.980;2022-08-20T12:18:33;20.80;99.90
5429;DHT22;2737;52.386;9.980;2022-08-20T12:21:01;20.70;99.90
5429;DHT22;2737;52.386;9.980;2022-08-20T12:23:28;21.00;99.90
5429;DHT22;2737;52.386;9.980;2022-08-20T12:25:55;21.30;99.90
5429;DHT22;2737;52.386;9.980;2022-08-20T12:28:22;21.00;99.90
5429;DHT22;2737;52.386;9.980;2022-08-20T12:30:49;21.20;99.90
5429;DHT22;2737;52.386;9.980;2022-08-20T12:33:16;21.40;99.90
5429;DHT22;2737;52.386;9.980;2022-08-20T12:35:44;21.40;99.90
5429;DHT22;2737;52.386;9.980;2022-08-20T12:38:12;21.60;99.90
5429;DHT22;2737;52.386;9.980;2022-08-20T12:40:41;21.50;99.90
5429;DHT22;2737;52.386;9.980;2022-08-20T12:43:08;21.40;99.90
5429;DHT22;2737;52.386;9.980;2022-08-20T12:45:35;21.50;99.90
5429;DHT22;2737;52.386;9.980;2022-08-20T12:48:05;21.50;99.90
5429;DHT22;2737;52.386;9.980;2022-08-20T12:50:33;21.70;99.90
5429;DHT22;2737;52.386;9.980;2022-08-20T12:53:01;21.90;99.90
5429;DHT22;2737;52.386;9.980;2022-08-20T12:55:30;22.10;99.90
5429;DHT22;2737;52.386;9.980;2022-08-20T12:57:59;22.40;99.90
5429;DHT22;2737;52.386;9.980;2022-08-20T13:00:29;22.50;99.90
5429;DHT22;2737;52.386;9.980;2022-08-20T13:02:59;22.70;99.90
5429;DHT22;2737;52.386;9.980;2022-08-20T13:05:27;22.80;99.90
5429;DHT22;2737;52.386;9.980;2022-08-20T13:07:57;22.60;99.90
5429;DHT22;2737;52.386;9.980;2022-08-20T13:10:27;22.90;99.90
5429;DHT22;2737;52.386;9.980;2022-08-20T13:12:55;22.80;99.90
5429;DHT22;2737;52.386;9.980;2022-08-20T13:15:23;22.50;99.90
5429;DHT22;2737;52.386;9.980;2022-08-20T13:17:51;22.60;99.90
5429;DHT22;2737;52.386;9.980;2022-08-20T13:20:18;22.90;99.90
5429;DHT22;2737;52.386;9.980;2022-08-20T13:22:45;23.10;99.90
5429;DHT22;2737;52.386;9.980;2022-08-20T13:25:13;23.00;99.90
5429;DHT22;2737;52.386;9.980;2022-08-20T13:27:41;23.00;99.90
5429;DHT22;2737;52.386;9.980;2022-08-20T13:30:14;23.20;99.90
5429;DHT22;2737;52.386;9.980;2022-08-20T13:32:42;23.40;99.90
5429;DHT22;2737;52.386;9.980;2022-08-20T13:35:10;23.40;99.90
5429;DHT22;2737;52.386;9.980;2022-08-20T13:37:39;23.40;99.90
5429;DHT22;2737;52.386;9.980;2022-08-20T13:40:08;23.60;99.90
5429;DHT22;2737;52.386;9.980;2022-08-20T13:42:35;23.70;99.90
5429;DHT22;2737;52.386;9.980;2022-08-20T13:45:03;23.50;99.90
5429;DHT22;2737;52.386;9.980;2022-08-20T13:47:33;23.20;99.90
5429;DHT22;2737;52.386;9.980;2022-08-20T13:50:03;23.10;99.90
5429;DHT22;2737;52.386;9.980;2022-08-20T13:52:31;23.00;99.90
5429;DHT22;2737;52.386;9.980;2022-08-20T13:54:59;23.10;99.90
5429;DHT22;2737;52.386;9.980;2022-08-20T13:57:26;23.00;99.90
5429;DHT22;2737;52.386;9.980;2022-08-20T13:59:56;23.10;99.90
5429;DHT22;2737;52.386;9.980;2022-08-20T14:02:24;23.10;99.90
5429;DHT22;2737;52.386;9.980;2022-08-20T14:04:53;23.30;99.90
5429;DHT22;2737;52.386;9.980;2022-08-20T14:07:24;23.50;99.90
5429;DHT22;2737;52.386;9.980;2022-08-20T14:09:54;23.60;99.90
5429;DHT22;2737;52.386;9.980;2022-08-20T14:12:22;23.50;99.90
5429;DHT22;2737;52.386;9.980;2022-08-20T14:14:50;23.10;99.90
5429;DHT22;2737;52.386;9.980;2022-08-20T14:17:20;22.90;99.90
5429;DHT22;2737;52.386;9.980;2022-08-20T14:19:50;23.20;99.90
5429;DHT22;2737;52.386;9.980;2022-08-20T14:22:19;23.30;99.90
5429;DHT22;2737;52.386;9.980;2022-08-20T14:24:47;23.20;99.90
5429;DHT22;2737;52.386;9.980;2022-08-20T14:27:15;23.20;99.90
5429;DHT22;2737;52.386;9.980;2022-08-20T14:29:44;23.50;99.90
5429;DHT22;2737;52.386;9.980;2022-08-20T14:32:12;23.50;99.90
5429;DHT22;2737;52.386;9.980;2022-08-20T14:34:40;23.70;99.90
5429;DHT22;2737;52.386;9.980;2022-08-20T14:37:12;23.60;99.90
5429;DHT22;2737;52.386;9.980;2022-08-20T14:39:41;23.10;99.90
5429;DHT22;2737;52.386;9.980;2022-08-20T14:42:08;22.90;99.90
5429;DHT22;2737;52.386;9.980;2022-08-20T14:44:35;23.10;99.90
5429;DHT22;2737;52.386;9.980;2022-08-20T14:47:10;23.20;99.90
5429;DHT22;2737;52.386;9.980;2022-08-20T14:49:38;23.30;99.90
5429;DHT22;2737;52.386;9.980;2022-08-20T14:52:05;23.50;99.90
5429;DHT22;2737;52.386;9.980;2022-08-20T14:54:33;23.30;99.90
5429;DHT22;2737;52.386;9.980;2022-08-20T14:57:01;23.20;99.90
5429;DHT22;2737;52.386;9.980;2022-08-20T14:59:29;23.50;99.90
5429;DHT22;2737;52.386;9.980;2022-08-20T15:01:56;23.60;99.90
5429;DHT22;2737;52.386;9.980;2022-08-20T15:04:24;23.70;99.90
5429;DHT22;2737;52.386;9.980;2022-08-20T15:06:52;23.60;99.90
5429;DHT22;2737;52.386;9.980;2022-08-20T15:09:19;23.60;99.90
5429;DHT22;2737;52.386;9.980;2022-08-20T15:11:46;23.60;99.90
5429;DHT22;2737;52.386;9.980;2022-08-20T15:14:15;23.40;99.90
5429;DHT22;2737;52.386;9.980;2022-08-20T15:16:44;23.60;99.90
5429;DHT22;2737;52.386;9.980;2022-08-20T15:19:11;23.80;99.90
5429;DHT22;2737;52.386;9.980;2022-08-20T15:21:38;23.90;99.90
5429;DHT22;2737;52.386;9.980;2022-08-20T15:24:05;24.00;99.90
5429;DHT22;2737;52.386;9.980;2022-08-20T15:26:32;24.20;99.90
5429;DHT22;2737;52.386;9.980;2022-08-20T15:28:59;24.40;99.90
5429;DHT22;2737;52.386;9.980;2022-08-20T15:31:28;24.30;99.90
5429;DHT22;2737;52.386;9.980;2022-08-20T15:33:55;24.40;99.90
5429;DHT22;2737;52.386;9.980;2022-08-20T15:36:22;24.40;99.90
5429;DHT22;2737;52.386;9.980;2022-08-20T15:38:50;24.30;99.90
5429;DHT22;2737;52.386;9.980;2022-08-20T15:41:17;24.30;99.90
5429;DHT22;2737;52.386;9.980;2022-08-20T15:43:44;24.30;99.90
5429;DHT22;2737;52.386;9.980;2022-08-20T15:46:11;24.10;99.90
5429;DHT22;2737;52.386;9.980;2022-08-20T15:48:42;24.10;99.90
5429;DHT22;2737;52.386;9.980;2022-08-20T15:51:21;24.10;99.90
5429;DHT22;2737;52.386;9.980;2022-08-20T15:53:56;24.10;99.90
5429;DHT22;2737;52.386;9.980;2022-08-20T15:56:48;24.00;99.90
5429;DHT22;2737;52.386;9.980;2022-08-20T15:59:32;24.00;99.90
5429;DHT22;2737;52.386;9.980;2022-08-20T16:05:09;24.00;99.90
5429;DHT22;2737;52.386;9.980;2022-08-20T16:07:45;24.10;99.90
5429;DHT22;2737;52.386;9.980;2022-08-20T16:10:17;24.30;99.90
5429;DHT22;2737;52.386;9.980;2022-08-20T16:12:48;24.20;99.90
5429;DHT22;2737;52.386;9.980;2022-08-20T16:15:21;24.20;99.90